createdAt,value
2023-04-19T00:02:13.293Z,18.98
2023-04-19T00:04:40.513Z,16.17
2023-04-19T00:07:07.690Z,13.13
2023-04-19T00:09:34.542Z,17.67
2023-04-19T00:12:01.512Z,14.75
2023-04-19T00:14:28.634Z,13.52
2023-04-19T00:16:55.656Z,13.10
2023-04-19T00:19:23.292Z,15.10
2023-04-19T00:21:50.350Z,13.88
2023-04-19T00:24:18.015Z,17.58
2023-04-19T00:26:44.906Z,13.73
2023-04-19T00:29:11.748Z,13.80
2023-04-19T00:31:39.924Z,14.38
2023-04-19T00:34:07.178Z,13.32
2023-04-19T00:36:34.171Z,13.00
2023-04-19T00:39:01.069Z,16.73
2023-04-19T00:41:27.937Z,13.50
2023-04-19T00:43:55.029Z,13.57
2023-04-19T00:46:23.071Z,14.85
2023-04-19T00:48:50.647Z,15.65
2023-04-19T00:51:17.720Z,22.25
2023-04-19T00:53:44.909Z,16.33
2023-04-19T00:56:14.640Z,16.85
2023-04-19T00:58:41.683Z,17.42
2023-04-19T01:01:08.585Z,16.35
2023-04-19T01:03:36.600Z,14.90
2023-04-19T01:06:03.954Z,16.25
2023-04-19T01:08:30.918Z,18.25
2023-04-19T01:10:57.847Z,17.48
2023-04-19T01:13:25.062Z,19.13
2023-04-19T01:15:52.117Z,19.75
2023-04-19T01:18:19.490Z,17.83
2023-04-19T01:20:46.458Z,18.98
2023-04-19T01:23:13.511Z,19.85
2023-04-19T01:25:40.415Z,22.13
2023-04-19T01:28:07.283Z,16.67
2023-04-19T01:30:36.419Z,13.57
2023-04-19T01:33:03.566Z,16.55
2023-04-19T01:35:30.454Z,15.35
2023-04-19T01:37:57.399Z,17.33
2023-04-19T01:40:25.835Z,12.52
2023-04-19T01:42:53.534Z,13.27
2023-04-19T01:45:20.741Z,13.45
2023-04-19T01:47:47.677Z,12.20
2023-04-19T01:50:14.546Z,14.63
2023-04-19T01:52:41.493Z,14.60
2023-04-19T01:55:08.932Z,17.48
2023-04-19T01:57:35.827Z,16.15
2023-04-19T02:00:03.152Z,15.07
2023-04-19T02:02:30.272Z,12.85
2023-04-19T02:04:58.126Z,12.40
2023-04-19T02:07:25.057Z,20.63
2023-04-19T02:09:51.987Z,19.13
2023-04-19T02:12:19.004Z,14.55
2023-04-19T02:14:45.950Z,15.43
2023-04-19T02:17:12.885Z,17.00
2023-04-19T02:19:39.768Z,17.98
2023-04-19T02:22:06.689Z,19.73
2023-04-19T02:24:33.574Z,17.70
2023-04-19T02:27:00.832Z,15.63
2023-04-19T02:29:27.994Z,16.77
2023-04-19T02:31:54.854Z,20.70
2023-04-19T02:34:21.781Z,17.00
2023-04-19T02:50:07.809Z,15.25
2023-04-19T02:52:34.707Z,20.88
2023-04-19T02:55:01.618Z,18.38
2023-04-19T02:57:28.490Z,12.73
2023-04-19T02:59:55.432Z,15.70
2023-04-19T03:02:22.368Z,21.42
2023-04-19T03:04:49.267Z,18.17
2023-04-19T03:07:16.346Z,24.05
2023-04-19T03:09:43.500Z,12.35
2023-04-19T03:12:10.424Z,16.13
2023-04-19T03:14:37.403Z,15.88
2023-04-19T03:17:04.249Z,13.63
2023-04-19T03:19:31.214Z,15.45
2023-04-19T03:21:58.153Z,13.90
2023-04-19T03:24:29.664Z,15.30
2023-04-19T03:26:57.393Z,14.68
2023-04-19T03:29:24.331Z,17.45
2023-04-19T03:31:51.239Z,14.70
2023-04-19T03:34:18.217Z,15.18
2023-04-19T03:36:45.140Z,13.73
2023-04-19T03:39:12.088Z,14.27
2023-04-19T03:41:40.930Z,15.68
2023-04-19T03:44:07.858Z,17.60
2023-04-19T03:46:34.732Z,15.35
2023-04-19T03:49:01.993Z,14.10
2023-04-19T03:51:28.924Z,15.65
2023-04-19T03:53:55.766Z,14.48
2023-04-19T03:56:22.745Z,17.98
2023-04-19T03:58:51.827Z,21.05
2023-04-19T04:01:21.259Z,21.65
2023-04-19T04:03:48.598Z,17.02
2023-04-19T04:06:16.158Z,16.48
2023-04-19T04:08:43.056Z,17.75
2023-04-19T04:11:10.023Z,15.77
2023-04-19T04:13:37.420Z,19.08
2023-04-19T04:16:04.831Z,15.38
2023-04-19T04:18:32.156Z,19.80
2023-04-19T04:20:59.130Z,15.20
2023-04-19T04:23:26.036Z,15.55
2023-04-19T04:26:05.224Z,13.98
2023-04-19T04:28:32.267Z,15.00
2023-04-19T04:31:00.272Z,13.80
2023-04-19T04:33:28.622Z,20.35
2023-04-19T04:35:57.789Z,14.75
2023-04-19T04:38:25.323Z,17.35
2023-04-19T04:40:56.304Z,17.80
2023-04-19T04:43:25.969Z,18.35
2023-04-19T04:45:55.741Z,15.10
2023-04-19T04:48:22.786Z,13.05
2023-04-19T04:50:49.932Z,13.07
2023-04-19T04:53:16.891Z,16.27
2023-04-19T04:55:43.846Z,20.83
2023-04-19T04:58:10.827Z,19.38
2023-04-19T05:00:37.731Z,15.95
2023-04-19T05:03:04.876Z,13.13
2023-04-19T05:05:32.040Z,13.98
2023-04-19T05:07:59.334Z,18.73
2023-04-19T05:10:26.327Z,17.48
2023-04-19T05:12:53.262Z,14.15
2023-04-19T05:15:20.397Z,16.95
2023-04-19T05:17:47.337Z,12.45
2023-04-19T05:20:14.414Z,17.17
2023-04-19T05:22:41.509Z,17.30
2023-04-19T05:25:10.261Z,13.38
2023-04-19T05:27:37.178Z,14.93
2023-04-19T05:30:06.647Z,14.27
2023-04-19T05:32:33.854Z,13.25
2023-04-19T05:35:00.982Z,14.25
2023-04-19T05:37:27.929Z,18.38
2023-04-19T05:39:54.918Z,16.58
2023-04-19T05:42:21.839Z,14.63
2023-04-19T05:44:48.704Z,15.43
2023-04-19T05:47:17.451Z,17.55
2023-04-19T05:49:44.389Z,17.85
2023-04-19T05:52:11.380Z,15.35
2023-04-19T05:54:38.286Z,13.70
2023-04-19T05:57:05.343Z,15.88
2023-04-19T05:59:32.284Z,14.70
2023-04-19T06:01:59.796Z,14.52
2023-04-19T06:04:27.617Z,16.60
2023-04-19T06:06:54.707Z,17.63
2023-04-19T06:09:21.731Z,14.07
2023-04-19T06:11:51.165Z,16.45
2023-04-19T06:14:19.167Z,14.02
2023-04-19T06:16:46.604Z,17.55
2023-04-19T06:19:13.729Z,18.02
2023-04-19T06:21:40.843Z,13.35
2023-04-19T06:24:08.243Z,13.75
2023-04-19T06:26:35.211Z,14.85
2023-04-19T06:29:02.083Z,16.08
2023-04-19T06:31:29.163Z,14.73
2023-04-19T06:33:56.128Z,17.17
2023-04-19T06:36:23.109Z,13.63
2023-04-19T06:38:50.419Z,13.57
2023-04-19T06:41:17.912Z,13.45
2023-04-19T06:43:45.048Z,13.30
2023-04-19T06:46:14.413Z,15.15
2023-04-19T06:48:41.886Z,15.73
2023-04-19T06:51:09.348Z,10.93
2023-04-19T06:53:36.959Z,11.70
2023-04-19T06:56:05.167Z,15.25
2023-04-19T06:58:34.935Z,14.80
2023-04-19T07:01:04.724Z,14.48
2023-04-19T07:03:32.459Z,13.90
2023-04-19T07:05:59.558Z,12.45
2023-04-19T07:08:34.938Z,14.70
2023-04-19T07:11:06.116Z,12.50
2023-04-19T07:13:32.979Z,14.07
2023-04-19T07:16:00.016Z,11.70
2023-04-19T07:18:27.303Z,13.60
2023-04-19T07:20:54.201Z,10.70
2023-04-19T07:23:21.098Z,13.00
2023-04-19T07:25:48.022Z,12.82
2023-04-19T07:28:16.041Z,33.08
2023-04-19T07:30:46.040Z,16.92
2023-04-19T07:33:13.176Z,10.20
2023-04-19T07:35:40.438Z,12.85
2023-04-19T07:38:07.379Z,12.00
2023-04-19T07:40:34.309Z,19.58
2023-04-19T07:43:01.169Z,12.63
2023-04-19T07:45:29.928Z,18.10
2023-04-19T07:47:56.910Z,12.48
2023-04-19T07:50:26.744Z,10.75
2023-04-19T07:52:54.334Z,9.23
2023-04-19T07:55:21.448Z,15.00
2023-04-19T07:57:49.376Z,11.68
2023-04-19T08:00:18.425Z,15.10
2023-04-19T08:02:49.571Z,12.38
2023-04-19T08:05:17.705Z,10.85
2023-04-19T08:07:46.043Z,11.68
2023-04-19T08:10:13.207Z,13.93
2023-04-19T08:12:50.333Z,10.73
2023-04-19T08:17:57.326Z,9.98
2023-04-19T08:20:24.323Z,13.30
2023-04-19T08:22:51.370Z,13.13
2023-04-19T08:25:18.356Z,13.60
2023-04-19T08:27:45.252Z,14.02
2023-04-19T08:30:12.776Z,11.90
2023-04-19T08:32:39.714Z,10.40
2023-04-19T08:35:08.373Z,13.18
2023-04-19T08:37:35.407Z,13.88
2023-04-19T08:40:03.808Z,16.58
2023-04-19T08:42:36.939Z,14.05
2023-04-19T08:47:42.184Z,15.23
2023-04-19T08:50:31.250Z,14.40
2023-04-19T08:55:33.809Z,12.25
2023-04-19T08:58:04.318Z,15.85
2023-04-19T09:00:37.915Z,14.23
2023-04-19T09:03:08.944Z,13.05
2023-04-19T09:05:36.294Z,16.98
2023-04-19T09:08:29.575Z,13.57
2023-04-19T09:11:01.918Z,14.15
2023-04-19T09:13:30.267Z,16.30
2023-04-19T09:15:58.161Z,13.25
2023-04-19T09:18:25.302Z,13.30
2023-04-19T09:20:58.957Z,14.18
2023-04-19T09:23:28.734Z,14.35
2023-04-19T09:28:29.373Z,18.63
2023-04-19T09:31:03.492Z,17.42
2023-04-19T09:33:41.706Z,16.52
2023-04-19T09:36:09.374Z,14.82
2023-04-19T09:38:51.893Z,20.92
2023-04-19T09:41:19.066Z,18.08
2023-04-19T09:44:02.276Z,15.02
2023-04-19T09:46:37.721Z,16.40
2023-04-19T09:49:22.905Z,15.98
2023-04-19T09:51:56.683Z,15.60
2023-04-19T09:54:25.625Z,16.02
2023-04-19T09:56:54.172Z,17.75
2023-04-19T09:59:23.743Z,17.80
2023-04-19T10:02:00.979Z,18.17
2023-04-19T10:04:38.351Z,19.05
2023-04-19T10:09:54.232Z,18.10
2023-04-19T10:15:00.020Z,17.27
2023-04-19T10:17:27.286Z,16.90
2023-04-19T10:20:06.914Z,14.70
2023-04-19T10:22:37.873Z,19.17
2023-04-19T10:25:13.431Z,17.70
2023-04-19T10:27:46.830Z,15.75
2023-04-19T10:30:22.854Z,13.90
2023-04-19T10:32:59.158Z,17.80
2023-04-19T10:35:37.355Z,18.20
2023-04-19T10:38:16.502Z,17.73
2023-04-19T10:40:52.898Z,22.80
2023-04-19T10:43:21.168Z,17.08
2023-04-19T10:45:48.680Z,21.75
2023-04-19T10:48:30.911Z,25.38
2023-04-19T10:51:11.159Z,21.75
2023-04-19T10:53:57.502Z,26.98
2023-04-19T10:56:33.515Z,24.98
2023-04-19T10:59:11.108Z,22.92
2023-04-19T11:01:47.949Z,26.08
2023-04-19T11:04:33.016Z,20.83
2023-04-19T11:07:07.972Z,25.02
2023-04-19T11:09:45.179Z,27.58
2023-04-19T11:12:18.118Z,24.52
2023-04-19T11:17:27.193Z,24.98
2023-04-19T11:20:02.714Z,28.67
2023-04-19T11:22:38.134Z,26.55
2023-04-19T11:25:20.690Z,26.50
2023-04-19T11:27:53.660Z,20.92
2023-04-19T11:30:30.830Z,22.70
2023-04-19T11:32:58.744Z,26.42
2023-04-19T11:35:28.620Z,21.05
2023-04-19T11:37:58.626Z,25.90
2023-04-19T11:40:27.067Z,25.25
2023-04-19T11:43:05.075Z,20.85
2023-04-19T11:46:03.248Z,23.38
2023-04-19T11:48:30.897Z,23.58
2023-04-19T11:51:00.587Z,22.95
2023-04-19T11:53:29.744Z,22.63
2023-04-19T11:56:03.535Z,21.50
2023-04-19T11:58:45.049Z,21.92
2023-04-19T12:01:19.635Z,24.92
2023-04-19T12:03:51.342Z,24.80
2023-04-19T12:06:33.501Z,22.75
2023-04-19T12:09:00.652Z,25.80
2023-04-19T12:11:50.242Z,22.92
2023-04-19T12:14:23.838Z,23.98
2023-04-19T12:17:16.758Z,22.33
2023-04-19T12:19:47.442Z,24.73
2023-04-19T12:22:24.227Z,19.40
2023-04-19T12:24:55.928Z,23.55
2023-04-19T12:27:22.897Z,20.98
2023-04-19T12:29:49.854Z,22.02
2023-04-19T12:32:16.976Z,21.95
2023-04-19T12:34:44.137Z,19.15
2023-04-19T12:37:11.116Z,20.92
2023-04-19T12:39:38.114Z,29.02
2023-04-19T12:42:06.251Z,21.17
2023-04-19T12:44:33.269Z,21.48
2023-04-19T12:47:00.219Z,22.98
2023-04-19T12:49:27.315Z,25.42
2023-04-19T12:51:55.917Z,25.60
2023-04-19T12:54:24.093Z,26.77
2023-04-19T12:56:50.991Z,25.08
2023-04-19T12:59:18.424Z,24.20
2023-04-19T13:01:45.761Z,28.63
2023-04-19T13:04:12.915Z,24.00
2023-04-19T13:06:40.937Z,21.10
2023-04-19T13:09:14.285Z,21.33
2023-04-19T13:11:42.310Z,28.83
2023-04-19T13:14:09.685Z,23.20
2023-04-19T13:16:36.915Z,25.88
2023-04-19T13:19:03.902Z,25.75
2023-04-19T13:21:31.324Z,24.90
2023-04-19T13:24:01.366Z,22.58
2023-04-19T13:26:29.945Z,26.77
2023-04-19T13:28:56.878Z,22.63
2023-04-19T13:31:23.935Z,21.63
2023-04-19T13:33:51.180Z,24.13
2023-04-19T13:36:18.300Z,22.13
2023-04-19T13:38:46.306Z,18.92
2023-04-19T13:41:13.384Z,21.15
2023-04-19T13:43:40.492Z,18.13
2023-04-19T13:46:07.478Z,18.00
2023-04-19T13:48:34.449Z,18.65
2023-04-19T13:51:01.429Z,19.35
2023-04-19T13:53:29.251Z,17.77
2023-04-19T13:55:56.841Z,18.08
2023-04-19T13:58:26.842Z,25.27
2023-04-19T14:00:54.500Z,40.97
2023-04-19T14:03:24.328Z,31.10
2023-04-19T14:05:51.642Z,24.15
2023-04-19T14:08:18.726Z,27.45
2023-04-19T14:10:45.904Z,23.55
2023-04-19T14:13:13.163Z,21.25
2023-04-19T14:15:40.615Z,19.38
2023-04-19T14:18:07.963Z,26.75
2023-04-19T14:20:35.384Z,24.65
2023-04-19T14:23:02.669Z,24.67
2023-04-19T14:25:30.158Z,21.20
2023-04-19T14:27:58.826Z,22.23
2023-04-19T14:30:26.846Z,21.88
2023-04-19T14:32:54.768Z,19.02
2023-04-19T14:35:22.210Z,23.88
2023-04-19T14:37:49.274Z,28.83
2023-04-19T14:40:18.113Z,29.45
2023-04-19T14:42:45.313Z,30.75
2023-04-19T14:45:12.602Z,28.02
2023-04-19T14:47:39.902Z,31.83
2023-04-19T14:50:07.892Z,28.75
2023-04-19T14:52:35.767Z,28.63
2023-04-19T14:55:03.366Z,34.03
2023-04-19T14:57:31.353Z,21.10
2023-04-19T14:59:58.739Z,21.52
2023-04-19T15:02:26.070Z,25.98
2023-04-19T15:04:54.208Z,24.55
2023-04-19T15:07:21.937Z,32.55
2023-04-19T15:09:49.775Z,31.58
2023-04-19T15:12:17.177Z,48.65
2023-04-19T15:14:45.880Z,30.13
2023-04-19T15:17:14.239Z,26.95
2023-04-19T15:19:42.702Z,24.70
2023-04-19T15:22:10.007Z,22.63
2023-04-19T15:24:37.379Z,25.02
2023-04-19T15:27:05.530Z,25.48
2023-04-19T15:29:32.545Z,26.95
2023-04-19T15:31:59.614Z,25.70
2023-04-19T15:34:27.473Z,25.70
2023-04-19T15:36:54.615Z,23.10
2023-04-19T15:39:23.465Z,28.55
2023-04-19T15:41:50.795Z,21.88
2023-04-19T15:44:18.024Z,23.67
2023-04-19T15:46:45.029Z,20.73
2023-04-19T15:49:12.508Z,22.92
2023-04-19T15:51:39.674Z,21.75
2023-04-19T15:54:07.031Z,25.67
2023-04-19T15:56:34.247Z,23.33
2023-04-19T15:59:01.369Z,21.60
2023-04-19T16:01:28.485Z,25.05
2023-04-19T16:03:59.013Z,23.58
2023-04-19T16:06:27.581Z,29.10
2023-04-19T16:08:54.648Z,26.95
2023-04-19T16:11:23.238Z,23.05
2023-04-19T16:13:50.837Z,29.50
2023-04-19T16:16:19.020Z,24.45
2023-04-19T16:18:47.102Z,26.42
2023-04-19T16:21:14.384Z,25.08
2023-04-19T16:23:42.269Z,26.20
2023-04-19T16:26:09.435Z,24.35
2023-04-19T16:28:36.652Z,27.05
2023-04-19T16:31:04.145Z,23.48
2023-04-19T16:33:31.466Z,23.15
2023-04-19T16:35:58.812Z,27.38
2023-04-19T16:38:27.206Z,25.02
2023-04-19T16:40:55.926Z,22.60
2023-04-19T16:43:23.815Z,22.45
2023-04-19T16:45:50.968Z,24.60
2023-04-19T16:48:18.377Z,24.92
2023-04-19T16:50:45.689Z,23.67
2023-04-19T16:53:12.948Z,24.98
2023-04-19T16:55:40.356Z,25.60
2023-04-19T16:58:07.479Z,23.20
2023-04-19T17:00:35.352Z,26.80
2023-04-19T17:03:02.782Z,22.70
2023-04-19T17:05:30.130Z,25.77
2023-04-19T17:07:58.819Z,21.90
2023-04-19T17:10:27.774Z,27.10
2023-04-19T17:12:55.930Z,26.60
2023-04-19T17:15:23.359Z,23.95
2023-04-19T17:17:51.788Z,23.00
2023-04-19T17:20:19.279Z,23.77
2023-04-19T17:22:46.657Z,24.48
2023-04-19T17:25:14.681Z,21.67
2023-04-19T17:27:42.394Z,21.80
2023-04-19T17:30:10.123Z,26.67
2023-04-19T17:32:37.479Z,32.92
2023-04-19T17:35:07.074Z,26.27
2023-04-19T17:37:34.452Z,26.20
2023-04-19T17:40:04.446Z,25.88
2023-04-19T17:42:34.955Z,25.35
2023-04-19T17:45:06.376Z,27.30
2023-04-19T17:47:33.717Z,28.70
2023-04-19T17:50:13.549Z,25.30
2023-04-19T17:52:41.038Z,29.70
2023-04-19T17:55:08.967Z,36.63
2023-04-19T17:57:36.242Z,33.83
2023-04-19T18:00:08.005Z,28.55
2023-04-19T18:02:38.318Z,34.03
2023-04-19T18:05:06.510Z,38.72
2023-04-19T18:07:39.918Z,38.00
2023-04-19T18:10:09.057Z,24.20
2023-04-19T18:12:37.707Z,25.33
2023-04-19T18:15:07.909Z,27.27
2023-04-19T18:17:36.661Z,25.90
2023-04-19T18:20:08.353Z,25.08
2023-04-19T18:22:38.016Z,23.92
2023-04-19T18:25:06.383Z,17.08
2023-04-19T18:27:35.394Z,19.63
2023-04-19T18:30:04.356Z,20.10
2023-04-19T18:32:33.181Z,24.50
2023-04-19T18:35:06.695Z,23.20
2023-04-19T18:37:34.149Z,21.88
2023-04-19T18:40:05.618Z,17.90
2023-04-19T18:42:35.533Z,24.35
2023-04-19T18:45:05.452Z,18.17
2023-04-19T18:47:35.242Z,15.43
2023-04-19T18:50:05.232Z,15.05
2023-04-19T18:52:39.128Z,13.55
2023-04-19T18:55:08.833Z,11.85
2023-04-19T18:57:38.783Z,14.15
2023-04-19T19:00:18.159Z,12.52
2023-04-19T19:02:54.591Z,17.75
2023-04-19T19:05:23.186Z,17.35
2023-04-19T19:07:51.320Z,18.42
2023-04-19T19:10:26.628Z,18.23
2023-04-19T19:13:14.695Z,17.83
2023-04-19T19:15:43.943Z,20.00
2023-04-19T19:18:11.308Z,19.45
2023-04-19T19:20:42.050Z,21.30
2023-04-19T19:23:10.128Z,22.08
2023-04-19T19:25:40.602Z,23.02
2023-04-19T19:28:11.524Z,20.45
2023-04-19T19:30:45.950Z,19.25
2023-04-19T19:33:15.266Z,16.35
2023-04-19T19:35:46.120Z,18.45
2023-04-19T19:38:16.605Z,16.98
2023-04-19T19:43:23.019Z,22.38
2023-04-19T19:45:51.796Z,21.83
2023-04-19T19:48:19.609Z,17.48
2023-04-19T19:51:17.396Z,18.95
2023-04-19T19:53:34.760Z,19.80
2023-04-19T19:56:04.008Z,17.73
2023-04-19T19:58:46.356Z,14.95
2023-04-19T20:01:22.472Z,16.20
2023-04-19T20:03:52.041Z,17.15
2023-04-19T20:08:56.255Z,16.92
2023-04-19T20:11:23.773Z,18.85
2023-04-19T20:13:51.110Z,16.83
2023-04-19T20:16:18.881Z,16.58
2023-04-19T20:18:46.637Z,41.33
2023-04-19T20:21:15.167Z,20.92
2023-04-19T20:23:42.970Z,17.77
2023-04-19T20:26:12.996Z,17.00
2023-04-19T20:28:41.889Z,15.73
2023-04-19T20:31:09.332Z,16.02
2023-04-19T20:33:36.648Z,18.00
2023-04-19T20:36:04.009Z,18.20
2023-04-19T20:38:32.719Z,17.55
2023-04-19T20:41:01.447Z,16.55
2023-04-19T20:43:28.661Z,17.40
2023-04-19T20:45:55.827Z,17.95
2023-04-19T20:48:24.153Z,22.50
2023-04-19T20:50:51.583Z,17.35
2023-04-19T20:53:21.747Z,18.15
2023-04-19T20:55:48.777Z,17.83
2023-04-19T20:58:16.022Z,17.25
2023-04-19T21:00:43.527Z,21.63
2023-04-19T21:03:11.095Z,24.42
2023-04-19T21:05:38.212Z,27.15
2023-04-19T21:08:05.530Z,30.77
2023-04-19T21:10:32.517Z,36.13
2023-04-19T21:12:59.477Z,31.48
2023-04-19T21:15:26.921Z,37.47
2023-04-19T21:17:53.914Z,32.97
2023-04-19T21:20:20.946Z,33.88
2023-04-19T21:22:48.641Z,38.08
2023-04-19T21:25:16.363Z,40.10
2023-04-19T21:27:43.403Z,40.45
2023-04-19T21:30:11.481Z,32.40
2023-04-19T21:32:38.705Z,37.40
2023-04-19T21:35:07.364Z,26.17
2023-04-19T21:37:37.223Z,29.98
2023-04-19T21:40:05.134Z,28.60
2023-04-19T21:42:32.184Z,28.58
2023-04-19T21:44:59.102Z,30.67
2023-04-19T21:47:26.100Z,32.03
2023-04-19T21:49:53.608Z,31.42
2023-04-19T21:52:23.186Z,30.13
2023-04-19T21:54:50.234Z,28.10
2023-04-19T21:57:21.827Z,29.33
2023-04-19T21:59:48.815Z,34.10
2023-04-19T22:02:18.916Z,27.60
2023-04-19T22:04:45.866Z,30.50
2023-04-19T22:07:12.887Z,27.60
2023-04-19T22:09:43.162Z,27.23
2023-04-19T22:12:11.524Z,26.17
2023-04-19T22:14:38.561Z,26.25
2023-04-19T22:17:05.955Z,24.38
2023-04-19T22:19:32.844Z,27.70
2023-04-19T22:21:59.761Z,27.30
2023-04-19T22:24:26.670Z,26.63
2023-04-19T22:26:53.527Z,26.27
2023-04-19T22:29:20.526Z,25.35
2023-04-19T22:31:47.468Z,26.23
2023-04-19T22:34:14.448Z,23.92
2023-04-19T22:36:41.429Z,26.25
2023-04-19T22:39:09.051Z,29.50
2023-04-19T22:41:35.973Z,28.85
2023-04-19T22:44:03.408Z,25.33
2023-04-19T22:46:30.550Z,22.02
2023-04-19T22:48:57.909Z,26.70
2023-04-19T22:51:24.826Z,26.15
2023-04-19T22:53:51.795Z,29.50
2023-04-19T22:56:18.786Z,23.65
2023-04-19T22:58:45.819Z,28.98
2023-04-19T23:01:12.950Z,26.20
2023-04-19T23:03:39.954Z,26.73
2023-04-19T23:06:07.966Z,28.83
2023-04-19T23:08:35.436Z,26.15
2023-04-19T23:11:02.305Z,27.77
2023-04-19T23:13:29.204Z,27.98
2023-04-19T23:15:56.104Z,29.42
2023-04-19T23:18:23.667Z,31.08
2023-04-19T23:20:50.565Z,33.78
2023-04-19T23:23:17.489Z,33.58
2023-04-19T23:25:44.371Z,30.40
2023-04-19T23:28:12.619Z,38.60
2023-04-19T23:30:39.762Z,33.78
2023-04-19T23:33:06.784Z,31.55
2023-04-19T23:35:33.792Z,34.65
2023-04-19T23:38:00.731Z,33.60
2023-04-19T23:40:27.670Z,32.20
2023-04-19T23:42:54.727Z,33.50
2023-04-19T23:45:21.805Z,36.03
2023-04-19T23:47:48.737Z,32.67
2023-04-19T23:50:15.716Z,35.05
2023-04-19T23:52:42.570Z,30.33
2023-04-19T23:55:09.994Z,32.92
2023-04-19T23:57:36.891Z,25.83
